Adona, Arkansas
Current Conditions -  °F | °C
As of 6:53 PM on Friday 24 Oct 2014 (Local Time) from KRUE Reporting Station
Clear Clear  
Wind Chill: 19°   Ceiling: Unl
Heat Index: 19°   Visibility: 10mi
Dew Point: 17°   Wind: 0mph
Humidity: 87%   Direction: NA
Pressure: 30.07"   Gusts: NA
Location:  35.04°N, 92.9°W
Report Text: KRUE 242353Z AUTO 00000KT 10SM CLR 19/17 A3007 RMK AO2 SLP179 T01890167 10250 20189 55003
Loading
Personal Weather Stations






























Interactive Weather Map
Tropical Storm Tracking
New forecast layout! Learn more

10-Day Weather Forecast

Advertisements
Track Severe Weather on mobile